Weather reports worldwide

Advertisment
Neuhaus am Rennweg, Germany (10557): temperature & dewpoint: 12.01.2020 13:00:00 - 18.01.2020 13:00:00 (CET)Neuhaus am Rennweg, Germany (10557): temperature 5cm & temperature -5cm: 12.01.2020 13:00:00 - 18.01.2020 13:00:00 (CET)Neuhaus am Rennweg, Germany (10557): temperature -20cm & temperature -100cm: 12.01.2020 13:00:00 - 18.01.2020 13:00:00 (CET)Neuhaus am Rennweg, Germany (10557): wind speed & gusts: 12.01.2020 13:00:00 - 18.01.2020 13:00:00 (CET)Neuhaus am Rennweg, Germany (10557): wind direction: 12.01.2020 13:00:00 - 18.01.2020 13:00:00 (CET)Neuhaus am Rennweg, Germany (10557): visibility: 12.01.2020 13:00:00 - 18.01.2020 13:00:00 (CET)Neuhaus am Rennweg, Germany (10557): precipitation: 12.01.2020 13:00:00 - 18.01.2020 13:00:00 (CET)
Date & Time tt [°C] td [°C] tt 5cm [°C] tt -5cm [°C] tt -20cm [°C] tt -100cm [°C] ff [km/h] ff [kn] fx [km/h] fx [kn] dd vv [km] rr [mm]
18.01.2020 13:00:00 -0,1 -1,2 -0,2 0,1 0,4 2,9 17 9 35 19 WSW 37 0,0
18.01.2020 12:00:00 -0,1 -1,1 -0,1 0,1 0,4 2,9 17 9 36 19 WSW 41 0,0
18.01.2020 11:00:00 -0,2 -0,8 -0,1 0,0 0,4 2,9 21 11 35 19 SW 27 0,0
18.01.2020 10:00:00 -0,3 -0,5 -0,3 0,0 0,4 2,9 20 11 36 19 WSW 1,9 0,0
18.01.2020 09:00:00 -0,4 -0,9 -0,5 0,0 0,3 2,9 16 9 27 14 SW 15 0,0
18.01.2020 08:00:00 -0,5 -1,0 -1,0 0,0 0,3 2,9 15 8 29 15 WSW 16 0,0
18.01.2020 07:00:00 -0,5 -1,0 -0,9 0,0 0,3 2,9 15 8 27 15 WSW 13 0,0
18.01.2020 06:00:00 -0,3 -1,1 -0,9 0,0 0,3 2,9 16 9 27 15 WSW 23 0,0
18.01.2020 05:00:00 -0,1 -0,9 -0,5 0,1 0,3 2,9 16 8 29 15 W 19 0,0
18.01.2020 04:00:00 0,6 -0,1 -0,1 0,1 0,3 2,9 12 7 30 16 W 16 0,0
18.01.2020 03:00:00 1,7 1,3 1,3 0,1 0,3 2,9 12 7 24 13 W 6 0,0
18.01.2020 02:00:00 2,0 1,8 1,6 0,1 0,3 2,9 11 6 24 13 WSW 0,4 0,0
18.01.2020 01:00:00 2,0 1,7 1,6 0,1 0,3 2,9 11 6 24 13 WSW 8 0,2
18.01.2020 00:00:00 2,3 2,1 2,0 0,1 0,3 2,9 18 10 34 18 W 0,4 0,0
17.01.2020 23:00:00 2,4 2,2 2,0 0,1 0,3 2,9 16 9 29 16 SW 0,1 0,3
17.01.2020 22:00:00 2,0 1,8 1,7 0,0 0,3 2,9 16 9 34 18 SW 0,6 0,4
17.01.2020 21:00:00 1,7 1,4 1,4 0,0 0,3 2,9 21 11 36 19 SW 0,6 0,2
17.01.2020 20:00:00 1,9 1,2 1,3 0,0 0,3 2,9 14 7 31 17 SSW 3,6 0,0
17.01.2020 19:00:00 1,9 1,0 1,4 0,0 0,3 2,9 21 11 30 16 SW 6 0,0
17.01.2020 18:00:00 1,2 0,4 0,3 0,0 0,3 2,9 14 8 25 13 SSW 7 0,0
17.01.2020 17:00:00 1,1 0,1 -0,1 0,0 0,3 2,9 14 8 34 19 SSW 9 0,0
17.01.2020 16:00:00 1,9 0,3 0,8 0,0 0,3 2,9 16 9 32 17 SSW 13 0,0
17.01.2020 15:00:00 1,8 0,4 0,7 0,0 0,3 2,9 14 8 24 13 SSW 12 0,0
17.01.2020 14:00:00 0,9 0,2 0,9 0,0 0,3 2,9 12 6 23 12 SSW 5 0,0
17.01.2020 13:00:00 1,0 0,3 1,0 0,0 0,3 2,9 12 6 25 13 SSW 4,4 0,0
17.01.2020 12:00:00 1,2 0,2 0,8 0,0 0,3 2,9 14 8 29 16 SSW 10 0,0
17.01.2020 11:00:00 1,8 0,2 0,1 0,0 0,3 2,9 13 7 30 16 S 22 0,0
17.01.2020 10:00:00 1,8 0,1 -0,1 0,0 0,3 2,9 16 9 24 13 SSW 33 0,0
17.01.2020 09:00:00 1,1 -0,1 -1,0 0,0 0,3 2,9 12 6 28 15 S 40 0,0
17.01.2020 08:00:00 1,3 0,1 -1,0 0,0 0,3 2,9 18 10 29 16 S 27 0,0
17.01.2020 07:00:00 1,8 0,5 -0,5 0,0 0,3 2,9 18 10 29 16 S 34 0,0
17.01.2020 06:00:00 2,3 1,0 0,0 0,0 0,3 2,9 18 10 27 14 S 41 0,0
17.01.2020 05:00:00 2,5 1,2 -0,3 0,0 0,3 2,9 14 7 27 15 S 37 0,0
17.01.2020 04:00:00 3,5 1,9 1,3 0,0 0,3 2,9 20 11 35 19 S 57 0,0
17.01.2020 03:00:00 3,2 2,1 1,2 0,0 0,3 2,9 27 14 38 20 S 33 0,0
17.01.2020 02:00:00 2,9 2,1 0,9 0,0 0,3 2,9 25 13 36 19 S 21 0,0
17.01.2020 01:00:00 2,6 1,7 0,1 0,0 0,3 2,9 23 13 35 19 S 17 0,0
17.01.2020 00:00:00 2,6 1,5 0,7 0,0 0,3 2,9 21 11 32 17 S 18 0,0
16.01.2020 23:00:00 2,2 1,3 0,0 0,0 0,3 2,9 21 12 33 18 S 16 0,0
16.01.2020 22:00:00 2,2 1,4 0,4 0,0 0,3 2,9 16 9 29 15 S 11 0,0
16.01.2020 21:00:00 2,5 1,7 0,5 0,0 0,3 2,9 21 12 29 16 S 15 0,0
16.01.2020 20:00:00 2,8 2,0 1,0 0,0 0,3 2,9 16 9 28 15 S 18 0,0
16.01.2020 19:00:00 3,1 2,3 1,2 0,0 0,3 2,9 22 12 29 16 S 17 0,0
16.01.2020 18:00:00 3,0 2,0 0,8 0,0 0,3 2,9 16 9 23 13 S 16 0,0
16.01.2020 17:00:00 3,7 2,5 1,2 0,2 0,3 2,9 14 8 21 12 S 18 0,0
16.01.2020 16:00:00 5,2 3,2 2,6 0,7 0,3 2,9 16 8 22 12 SSE 35 0,0
16.01.2020 15:00:00 6,5 3,4 5,2 0,4 0,3 2,9 14 8 24 13 S 41 0,0
16.01.2020 14:00:00 7,1 3,0 5,7 0,3 0,3 2,9 14 7 23 12 SSW 49 0,0
16.01.2020 13:00:00 6,0 3,3 5,4 0,1 0,3 2,9 14 7 23 12 SSW 48 0,0
16.01.2020 12:00:00 6,0 3,2 6,7 0,0 0,3 2,9 10 6 21 12 S 42 0,0
16.01.2020 11:00:00 4,3 2,4 4,0 0,0 0,3 3,0 8 5 11 6 S 41 0,0
16.01.2020 10:00:00 3,7 2,4 2,4 0,0 0,3 3,0 3 2 13 7 SSE 37 0,0
16.01.2020 09:00:00 3,1 1,9 2,5 0,0 0,3 3,0 5 3 13 7 SSW 28 0,0
16.01.2020 08:00:00 2,8 1,4 1,8 0,0 0,3 3,0 9 5 13 7 SSW 32 0,0
16.01.2020 07:00:00 3,6 2,0 2,9 0,0 0,3 3,0 6 4 13 7 SSW 28 0,0
16.01.2020 06:00:00 3,9 2,3 2,7 0,0 0,3 3,0 6 4 16 8 SW 43 0,0
16.01.2020 05:00:00 3,9 2,0 3,0 0,0 0,3 3,0 8 5 18 10 SSW 44 0,0
16.01.2020 04:00:00 4,3 2,2 3,1 0,0 0,3 3,0 10 6 19 10 SSW 49 0,0
16.01.2020 03:00:00 4,6 2,2 3,8 0,0 0,3 3,0 10 6 23 13 SW 54 0,0
16.01.2020 02:00:00 4,5 1,9 3,7 0,0 0,3 3,0 15 8 24 13 SW 51 0,0
16.01.2020 01:00:00 4,3 1,4 3,5 0,0 0,3 3,0 10 5 19 11 SSW 51 0,0
16.01.2020 00:00:00 4,4 1,2 3,6 0,0 0,3 3,0 11 6 24 13 SSW 53 0,0
15.01.2020 23:00:00 4,0 0,9 3,2 0,0 0,3 3,0 14 7 22 12 S 57 0,0
15.01.2020 22:00:00 4,5 1,0 2,9 0,0 0,3 3,0 13 7 29 16 SSW 59 0,0
15.01.2020 21:00:00 4,9 1,0 4,0 0,0 0,3 3,0 17 9 35 19 SSW 56 0,0
15.01.2020 20:00:00 4,2 0,7 2,7 0,0 0,3 3,0 19 10 35 19 SW 57 0,0
15.01.2020 19:00:00 4,0 0,4 2,4 0,0 0,3 3,0 18 10 35 19 SSW 49 0,0
15.01.2020 18:00:00 3,6 0,0 2,0 0,0 0,3 3,0 16 9 34 18 S 48 0,0
15.01.2020 17:00:00 3,3 -0,1 0,9 0,0 0,3 3,0 10 5 22 12 S 42 0,0
15.01.2020 16:00:00 4,3 -0,1 2,3 0,0 0,3 3,0 11 6 26 14 SSW 50 0,0
15.01.2020 15:00:00 5,2 -0,2 3,2 0,0 0,3 3,0 18 10 29 16 SSW 54 0,0
15.01.2020 14:00:00 6,2 -0,1 4,4 0,0 0,3 3,0 16 9 31 17 SSW 50 0,0
15.01.2020 13:00:00 6,1 -0,6 5,6 0,0 0,3 3,0 15 8 37 20 SW 59 0,0
15.01.2020 12:00:00 5,6 -1,0 5,6 0,0 0,3 3,0 16 9 34 18 SSW 62 0,0
15.01.2020 11:00:00 4,4 -1,5 2,8 0,0 0,3 3,0 16 9 27 15 SSW 69 0,0
15.01.2020 10:00:00 2,9 -1,7 1,3 0,0 0,3 3,0 16 9 27 14 SSW 48 0,0
15.01.2020 09:00:00 2,2 -1,7 0,4 0,0 0,3 3,0 13 7 22 12 SSW 46 0,0
15.01.2020 08:00:00 3,5 -1,4 2,8 0,0 0,3 3,0 13 7 26 14 SSW 51 0,0
15.01.2020 07:00:00 3,6 -1,2 2,4 0,0 0,3 3,0 14 8 25 14 SSW 60 0,0
15.01.2020 06:00:00 3,3 -0,9 2,3 0,0 0,3 3,0 16 9 27 15 SSW 62 0,0
15.01.2020 05:00:00 3,0 -1,0 1,1 0,0 0,3 3,0 14 8 27 14 SSW 64 0,0
15.01.2020 04:00:00 3,2 -0,9 1,6 0,0 0,3 3,0 14 7 30 16 SSW 65 0,0
15.01.2020 03:00:00 3,5 -0,9 2,1 0,0 0,3 3,0 18 10 35 19 SSW 58 0,0
15.01.2020 02:00:00 3,7 -0,6 2,0 0,0 0,3 3,0 21 11 37 20 SSW 59 0,0
15.01.2020 01:00:00 4,2 -0,4 3,1 0,0 0,3 3,0 19 10 39 21 SSW 61 0,0
15.01.2020 00:00:00 3,8 -0,2 2,9 0,0 0,3 3,0 23 12 38 20 SSW 68 0,0
14.01.2020 23:00:00 3,6 -0,2 2,4 0,0 0,3 3,0 20 11 39 21 SSW 50 0,0
14.01.2020 22:00:00 3,0 -0,3 2,4 0,0 0,3 3,0 24 13 39 21 SSW 46 0,0
14.01.2020 21:00:00 2,4 -0,5 1,6 0,0 0,3 3,0 23 12 39 21 SSW 45 0,0
14.01.2020 20:00:00 2,0 -0,5 0,9 0,0 0,3 3,0 21 11 37 20 SSW 42 0,0
14.01.2020 19:00:00 2,3 -0,3 1,0 0,0 0,3 3,0 23 12 41 22 SSW 27 0,0
14.01.2020 18:00:00 2,0 -0,4 0,9 0,0 0,3 3,0 22 12 37 20 SSW 53 0,0
14.01.2020 17:00:00 1,9 -0,4 1,3 0,0 0,3 3,0 18 10 31 17 SSW 45 0,0
14.01.2020 16:00:00 1,5 -0,3 0,9 0,0 0,3 3,0 20 11 36 19 S 35 0,0
14.01.2020 15:00:00 1,2 -0,5 0,7 0,0 0,3 3,0 19 10 36 19 SSW 34 0,0
14.01.2020 14:00:00 1,3 -0,7 1,1 0,0 0,3 3,0 21 12 36 20 SSW 37 0,0
14.01.2020 13:00:00 1,2 -0,6 1,0 0,0 0,3 3,0 19 10 40 22 SSW 42 0,0
14.01.2020 12:00:00 1,7 -0,2 1,5 0,0 0,3 3,0 29 16 48 26 SSW 41 0,0
14.01.2020 11:00:00 1,0 -0,7 0,2 0,0 0,3 3,0 16 9 36 19 SSW 39 0,0
14.01.2020 10:00:00 0,2 -1,0 -0,2 0,0 0,3 3,0 22 12 42 23 SSW 27 0,0
14.01.2020 09:00:00 0,1 -0,9 -0,4 0,0 0,3 3,0 16 9 27 15 SSW 24 0,0
14.01.2020 08:00:00 0,2 -0,6 -0,3 0,0 0,3 3,0 18 10 31 17 SSW 22 0,0
14.01.2020 07:00:00 0,2 -0,4 -0,3 0,0 0,3 3,0 23 12 45 24 SW 14 0,0
14.01.2020 06:00:00 0,0 -0,4 -0,6 0,0 0,3 3,0 21 12 36 19 SSW 7 0,0
14.01.2020 05:00:00 -0,3 -0,6 -0,7 0,0 0,2 3,0 22 12 32 17 S 1,8 0,0
14.01.2020 04:00:00 0,0 -0,2 -0,4 0,0 0,2 3,0 15 8 27 15 S 2,5 0,0
14.01.2020 03:00:00 0,0 -0,3 -0,1 0,0 0,2 3,0 16 9 27 15 S 0,1 0,0
14.01.2020 02:00:00 0,5 0,3 0,0 0,0 0,2 3,0 19 11 39 21 S 0,2 0,0
14.01.2020 01:00:00 0,5 0,3 0,0 0,0 0,2 3,0 22 12 36 19 SSW 0,3 0,0
14.01.2020 00:00:00 0,2 0,0 0,0 0,0 0,2 3,0 18 10 35 19 SSW 0,2 0,0
13.01.2020 23:00:00 0,2 0,0 0,0 0,0 0,2 3,0 17 9 33 18 S 0,1 0,0
13.01.2020 22:00:00 0,1 0,0 0,0 0,0 0,2 3,0 18 10 33 18 S 0,1 0,1
13.01.2020 21:00:00 0,0 -0,2 0,0 0,0 0,2 3,0 18 10 33 18 SSW 0,2 0,3
13.01.2020 20:00:00 0,0 -0,1 0,0 0,0 0,2 3,0 14 8 24 13 S 0,1 0,0
13.01.2020 19:00:00 -0,1 -0,3 -0,1 0,0 0,2 3,0 14 7 26 14 S 0,1 0,3
13.01.2020 18:00:00 -0,2 -0,5 -0,1 0,0 0,2 3,0 15 8 24 13 S 0,2 0,7
13.01.2020 17:00:00 -0,1 -0,3 -0,1 0,0 0,2 3,0 15 8 23 13 SSE 0,3 0,2
13.01.2020 16:00:00 0,0 -0,2 0,0 0,0 0,2 3,0 14 7 21 11 S 0,2 0,0
13.01.2020 15:00:00 0,0 -0,2 0,0 0,0 0,2 3,0 12 6 18 10 S 0,1 0,0
13.01.2020 14:00:00 -0,1 -0,4 0,0 0,0 0,2 3,0 8 5 17 9 SSW 0,1 0,0
13.01.2020 13:00:00 -0,1 -0,3 -0,1 0,0 0,2 3,0 12 7 21 12 S 0,1 0,0
13.01.2020 12:00:00 -0,1 -0,3 -0,1 0,0 0,2 3,0 16 8 22 12 S 0,1 0,0
13.01.2020 11:00:00 -0,2 -0,4 -0,1 -0,1 0,2 3,0 13 7 24 13 S 0,2 0,0
13.01.2020 10:00:00 -0,3 -0,5 -0,2 -0,1 0,2 3,0 10 6 26 14 S 0,1 0,0
13.01.2020 09:00:00 -0,3 -0,5 -0,3 -0,1 0,2 3,0 10 6 21 11 S 0,1 0,0
13.01.2020 08:00:00 -0,3 -0,5 -0,3 -0,1 0,2 3,0 15 8 28 15 SSW 0,1 0,0
13.01.2020 07:00:00 -0,3 -0,6 -0,4 -0,1 0,2 3,0 16 9 31 17 SSW 0,1 0,0
13.01.2020 06:00:00 -0,3 -0,5 -0,3 -0,1 0,2 3,0 19 10 29 16 SW 0,1 0,0
13.01.2020 05:00:00 -0,3 -0,5 -0,3 -0,1 0,2 3,0 19 10 32 18 SW 0,1 0,0
13.01.2020 04:00:00 -0,4 -0,6 -0,4 -0,1 0,2 3,0 14 7 24 13 SW 0,1 0,0
13.01.2020 03:00:00 -0,5 -0,7 -0,5 -0,1 0,2 3,0 12 7 27 14 SW 0,2 0,0
13.01.2020 02:00:00 -0,5 -0,7 -0,5 -0,1 0,2 3,0 14 7 31 17 SW 0,1 0,0
13.01.2020 01:00:00 -0,7 -1,0 -0,7 -0,1 0,2 3,0 18 10 36 19 SW 0,2 0,0
13.01.2020 00:00:00 -1,1 -1,4 -1,1 -0,1 0,2 3,0 20 11 38 21 SW 0,1 0,0
12.01.2020 23:00:00 -1,4 -1,7 -1,3 -0,1 0,2 3,0 20 11 31 17 SSW 0,2 0,0
12.01.2020 22:00:00 -1,8 -2,1 -1,6 -0,1 0,2 3,0 18 10 29 16 SSW 2,5 0,0
12.01.2020 21:00:00 -1,9 -2,3 -1,6 -0,1 0,2 3,0 21 11 37 20 SSW 0,9 0,0
12.01.2020 20:00:00 -2,0 -2,5 -2,0 -0,1 0,2 3,0 21 11 35 19 SSW 2,9 0,0
12.01.2020 19:00:00 -2,1 -2,6 -1,8 -0,1 0,2 3,0 21 11 41 22 SSW 1,6 0,0
12.01.2020 18:00:00 -2,3 -2,8 -2,2 0,0 0,2 3,0 26 14 51 27 SW 1,7 0,0
12.01.2020 17:00:00 -2,5 -3,0 -2,4 0,0 0,2 3,0 26 14 45 24 SSW 3,4 0,0
12.01.2020 16:00:00 -2,7 -3,2 -2,4 0,0 0,2 3,0 26 14 58 32 SW 1,3 0,0
12.01.2020 15:00:00 -2,6 -3,1 -2,3 0,0 0,2 3,0 35 19 56 30 SW 1,3 0,0
12.01.2020 14:00:00 -2,7 -3,2 -2,2 0,0 0,2 3,0 31 17 54 29 SSW 0,6 0,0
12.01.2020 13:00:00 -2,5 -2,9 -1,9 0,0 0,2 3,0 30 16 52 28 SSW 0,6 0,0

tt = temperature
td = dewpoint
tt 5cm = temperature 5cm
tt -5cm = temperature -5cm
tt -20cm = temperature -20cm
tt -100cm = temperature -100cm
ff = wind speed
fx = gusts
dd = wind direction
vv = visibility
rr = precipitation

Next stations